UHMD

Details ICAO UHMD (PVS)
Name Provideniya Bay
Region Russia
Timezone Asia/Anadyr (UTC+12.0)
Plans Departing 27
Arriving 35
Stats Elevation 71 ft / 22 m (AMSL)
Location 64.365475° -173.239022°
Runways 2
Magnetic Variation 6.145° E
Sunrise 2017-12-11 21:20:48 UTC / 2017-12-12 09:20:48 Local
Sunset 2017-12-12 01:34:57 UTC / 2017-12-12 13:34:57 Local
Advertisement - Login to hide

Runways

ID Width Length Bearing (true) Bearing (mag) Surface Threshold Offset Overrun Length
01 299 ft / 91 m 8,140 ft / 2,481 m 21.46° 15.32° Gravel 0 ft / 0 m 0 ft / 0 m
03 213 ft / 65 m 3,998 ft / 1,219 m 32.10° 25.96° Gravel 0 ft / 0 m 0 ft / 0 m
19 299 ft / 91 m 8,140 ft / 2,481 m 201.48° 195.34° Gravel 0 ft / 0 m 0 ft / 0 m
21 213 ft / 65 m 3,998 ft / 1,219 m 212.11° 205.97° Gravel 0 ft / 0 m 0 ft / 0 m

Map

Weather


0- 5 10 15 20 25 30 35+ Temperature / ° C

Clouds and Precipitation
Forecast for 2017-12-12 00:00 UTC. Updated 2 hours ago

Ground ~20,000 ft ~40,000 ft Winds

METAR

UHMD 112030Z 34010MPS 9999 FEW033 SCT150 M10/M17 Q1004 RMK QFE752/1003

TAF

Not found

Frequencies

Tower 119.30 MHz TWR
Warning: Do not use this data for real-world aviation or navigation. No guarantee of current accuracy is given.